sensor_id;sensor_type;location;lat;lon;timestamp;temperature;humidity
44121;DHT22;29783;52.504;13.478;2023-02-04T00:01:45;3.60;84.50
44121;DHT22;29783;52.504;13.478;2023-02-04T00:04:12;3.60;85.10
44121;DHT22;29783;52.504;13.478;2023-02-04T00:06:38;3.60;85.10
44121;DHT22;29783;52.504;13.478;2023-02-04T00:09:04;3.50;85.50
44121;DHT22;29783;52.504;13.478;2023-02-04T00:11:29;3.50;86.00
44121;DHT22;29783;52.504;13.478;2023-02-04T00:13:55;3.40;86.40
44121;DHT22;29783;52.504;13.478;2023-02-04T00:16:21;3.40;87.00
44121;DHT22;29783;52.504;13.478;2023-02-04T00:18:47;3.30;87.70
44121;DHT22;29783;52.504;13.478;2023-02-04T00:21:12;3.20;88.00
44121;DHT22;29783;52.504;13.478;2023-02-04T00:23:38;3.20;88.30
44121;DHT22;29783;52.504;13.478;2023-02-04T00:26:04;3.10;88.50
44121;DHT22;29783;52.504;13.478;2023-02-04T00:28:30;3.10;88.20
44121;DHT22;29783;52.504;13.478;2023-02-04T00:30:56;3.10;88.00
44121;DHT22;29783;52.504;13.478;2023-02-04T00:33:21;3.20;88.00
44121;DHT22;29783;52.504;13.478;2023-02-04T00:35:47;3.10;88.20
44121;DHT22;29783;52.504;13.478;2023-02-04T00:38:13;3.10;88.00
44121;DHT22;29783;52.504;13.478;2023-02-04T00:40:39;3.10;87.60
44121;DHT22;29783;52.504;13.478;2023-02-04T00:43:05;3.10;87.30
44121;DHT22;29783;52.504;13.478;2023-02-04T00:45:31;3.00;86.60
44121;DHT22;29783;52.504;13.478;2023-02-04T00:47:56;3.00;86.30
44121;DHT22;29783;52.504;13.478;2023-02-04T00:50:22;2.90;86.40
44121;DHT22;29783;52.504;13.478;2023-02-04T00:52:48;2.90;86.30
44121;DHT22;29783;52.504;13.478;2023-02-04T00:55:14;2.80;86.50
44121;DHT22;29783;52.504;13.478;2023-02-04T00:57:43;2.80;86.20
44121;DHT22;29783;52.504;13.478;2023-02-04T01:00:12;2.70;86.00
44121;DHT22;29783;52.504;13.478;2023-02-04T01:02:38;2.70;85.90
44121;DHT22;29783;52.504;13.478;2023-02-04T01:05:06;2.70;85.50
44121;DHT22;29783;52.504;13.478;2023-02-04T01:07:32;2.70;85.00
44121;DHT22;29783;52.504;13.478;2023-02-04T01:09:58;2.70;84.90
44121;DHT22;29783;52.504;13.478;2023-02-04T01:12:23;2.70;84.70
44121;DHT22;29783;52.504;13.478;2023-02-04T01:14:52;2.60;85.10
44121;DHT22;29783;52.504;13.478;2023-02-04T01:17:18;2.50;85.50
44121;DHT22;29783;52.504;13.478;2023-02-04T01:19:44;2.50;85.70
44121;DHT22;29783;52.504;13.478;2023-02-04T01:22:10;2.50;86.00
44121;DHT22;29783;52.504;13.478;2023-02-04T01:24:36;2.40;86.20
44121;DHT22;29783;52.504;13.478;2023-02-04T01:27:02;2.30;86.20
44121;DHT22;29783;52.504;13.478;2023-02-04T01:29:28;2.30;86.00
44121;DHT22;29783;52.504;13.478;2023-02-04T01:31:54;2.30;86.00
44121;DHT22;29783;52.504;13.478;2023-02-04T01:34:19;2.30;86.20
44121;DHT22;29783;52.504;13.478;2023-02-04T01:36:45;2.30;86.30
44121;DHT22;29783;52.504;13.478;2023-02-04T01:39:11;2.30;86.50
44121;DHT22;29783;52.504;13.478;2023-02-04T01:41:37;2.30;86.80
44121;DHT22;29783;52.504;13.478;2023-02-04T01:44:05;2.20;87.20
44121;DHT22;29783;52.504;13.478;2023-02-04T01:46:31;2.20;87.60
44121;DHT22;29783;52.504;13.478;2023-02-04T01:49:00;2.20;87.70
44121;DHT22;29783;52.504;13.478;2023-02-04T01:51:27;2.20;88.00
44121;DHT22;29783;52.504;13.478;2023-02-04T01:53:57;2.10;88.60
44121;DHT22;29783;52.504;13.478;2023-02-04T01:56:25;1.90;88.80
44121;DHT22;29783;52.504;13.478;2023-02-04T01:58:52;1.90;89.00
44121;DHT22;29783;52.504;13.478;2023-02-04T02:01:42;1.90;89.10
44121;DHT22;29783;52.504;13.478;2023-02-04T02:04:10;1.80;89.20
44121;DHT22;29783;52.504;13.478;2023-02-04T02:06:38;1.80;89.00
44121;DHT22;29783;52.504;13.478;2023-02-04T02:09:05;1.80;89.10
44121;DHT22;29783;52.504;13.478;2023-02-04T02:11:31;1.90;88.70
44121;DHT22;29783;52.504;13.478;2023-02-04T02:13:57;2.00;88.50
44121;DHT22;29783;52.504;13.478;2023-02-04T02:16:23;2.10;88.20
44121;DHT22;29783;52.504;13.478;2023-02-04T02:18:49;2.10;87.80
44121;DHT22;29783;52.504;13.478;2023-02-04T02:21:25;2.20;87.30
44121;DHT22;29783;52.504;13.478;2023-02-04T02:23:53;2.20;87.00
44121;DHT22;29783;52.504;13.478;2023-02-04T02:26:22;2.20;87.00
44121;DHT22;29783;52.504;13.478;2023-02-04T02:28:48;2.30;86.60
44121;DHT22;29783;52.504;13.478;2023-02-04T02:31:16;2.30;86.40
44121;DHT22;29783;52.504;13.478;2023-02-04T02:33:43;2.30;86.50
44121;DHT22;29783;52.504;13.478;2023-02-04T02:36:09;2.20;86.40
44121;DHT22;29783;52.504;13.478;2023-02-04T02:38:35;2.20;86.70
44121;DHT22;29783;52.504;13.478;2023-02-04T02:41:02;2.00;87.00
44121;DHT22;29783;52.504;13.478;2023-02-04T02:43:28;2.00;87.30
44121;DHT22;29783;52.504;13.478;2023-02-04T02:45:58;1.90;87.80
44121;DHT22;29783;52.504;13.478;2023-02-04T02:48:24;1.90;87.80
44121;DHT22;29783;52.504;13.478;2023-02-04T02:50:50;1.80;88.10
44121;DHT22;29783;52.504;13.478;2023-02-04T02:53:18;1.80;88.40
44121;DHT22;29783;52.504;13.478;2023-02-04T02:55:45;1.80;88.60
44121;DHT22;29783;52.504;13.478;2023-02-04T02:58:28;1.70;88.80
44121;DHT22;29783;52.504;13.478;2023-02-04T03:00:55;1.60;89.10
44121;DHT22;29783;52.504;13.478;2023-02-04T03:03:27;1.50;89.30
44121;DHT22;29783;52.504;13.478;2023-02-04T03:06:00;1.40;89.70
44121;DHT22;29783;52.504;13.478;2023-02-04T03:08:29;1.30;90.00
44121;DHT22;29783;52.504;13.478;2023-02-04T03:10:54;1.30;90.20
44121;DHT22;29783;52.504;13.478;2023-02-04T03:13:20;1.40;90.20
44121;DHT22;29783;52.504;13.478;2023-02-04T03:15:47;1.40;90.10
44121;DHT22;29783;52.504;13.478;2023-02-04T03:18:15;1.40;90.20
44121;DHT22;29783;52.504;13.478;2023-02-04T03:20:42;1.40;90.30
44121;DHT22;29783;52.504;13.478;2023-02-04T03:23:08;1.30;90.20
44121;DHT22;29783;52.504;13.478;2023-02-04T03:25:34;1.30;90.20
44121;DHT22;29783;52.504;13.478;2023-02-04T03:28:00;1.30;90.50
44121;DHT22;29783;52.504;13.478;2023-02-04T03:30:26;1.30;90.50
44121;DHT22;29783;52.504;13.478;2023-02-04T03:32:52;1.30;90.70
44121;DHT22;29783;52.504;13.478;2023-02-04T03:35:18;1.30;90.60
44121;DHT22;29783;52.504;13.478;2023-02-04T03:37:44;1.20;90.60
44121;DHT22;29783;52.504;13.478;2023-02-04T03:40:11;1.20;91.10
44121;DHT22;29783;52.504;13.478;2023-02-04T03:42:37;1.20;90.90
44121;DHT22;29783;52.504;13.478;2023-02-04T03:45:03;1.20;91.00
44121;DHT22;29783;52.504;13.478;2023-02-04T03:47:29;1.10;90.90
44121;DHT22;29783;52.504;13.478;2023-02-04T03:49:55;1.10;91.00
44121;DHT22;29783;52.504;13.478;2023-02-04T03:52:21;1.10;91.20
44121;DHT22;29783;52.504;13.478;2023-02-04T03:54:47;1.10;91.30
44121;DHT22;29783;52.504;13.478;2023-02-04T03:57:13;1.00;91.30
44121;DHT22;29783;52.504;13.478;2023-02-04T03:59:40;1.00;91.40
44121;DHT22;29783;52.504;13.478;2023-02-04T04:02:06;1.10;91.40
44121;DHT22;29783;52.504;13.478;2023-02-04T04:04:32;1.00;91.40
44121;DHT22;29783;52.504;13.478;2023-02-04T04:06:58;1.00;91.50
44121;DHT22;29783;52.504;13.478;2023-02-04T04:09:23;1.00;91.60
44121;DHT22;29783;52.504;13.478;2023-02-04T04:11:49;1.00;91.70
44121;DHT22;29783;52.504;13.478;2023-02-04T04:14:15;1.00;91.70
44121;DHT22;29783;52.504;13.478;2023-02-04T04:16:41;1.20;91.60
44121;DHT22;29783;52.504;13.478;2023-02-04T04:19:07;1.30;91.10
44121;DHT22;29783;52.504;13.478;2023-02-04T04:21:32;1.30;90.90
44121;DHT22;29783;52.504;13.478;2023-02-04T04:23:58;1.30;90.70
44121;DHT22;29783;52.504;13.478;2023-02-04T04:26:24;1.40;90.50
44121;DHT22;29783;52.504;13.478;2023-02-04T04:28:50;1.50;90.20
44121;DHT22;29783;52.504;13.478;2023-02-04T04:31:15;1.50;90.10
44121;DHT22;29783;52.504;13.478;2023-02-04T04:33:41;1.50;90.00
44121;DHT22;29783;52.504;13.478;2023-02-04T04:36:07;1.50;90.00
44121;DHT22;29783;52.504;13.478;2023-02-04T04:38:33;1.50;90.00
44121;DHT22;29783;52.504;13.478;2023-02-04T04:40:59;1.40;90.10
44121;DHT22;29783;52.504;13.478;2023-02-04T04:43:25;1.40;90.40
44121;DHT22;29783;52.504;13.478;2023-02-04T04:45:51;1.30;90.60
44121;DHT22;29783;52.504;13.478;2023-02-04T04:48:17;1.30;90.70
44121;DHT22;29783;52.504;13.478;2023-02-04T04:50:43;1.20;90.90
44121;DHT22;29783;52.504;13.478;2023-02-04T04:53:08;1.30;91.00
44121;DHT22;29783;52.504;13.478;2023-02-04T04:55:39;1.20;91.10
44121;DHT22;29783;52.504;13.478;2023-02-04T04:58:06;1.20;91.40
44121;DHT22;29783;52.504;13.478;2023-02-04T05:00:32;1.20;91.50
44121;DHT22;29783;52.504;13.478;2023-02-04T05:02:59;1.20;91.40
44121;DHT22;29783;52.504;13.478;2023-02-04T05:05:25;1.20;91.50
44121;DHT22;29783;52.504;13.478;2023-02-04T05:07:51;1.10;91.50
44121;DHT22;29783;52.504;13.478;2023-02-04T05:10:18;0.90;91.60
44121;DHT22;29783;52.504;13.478;2023-02-04T05:12:45;0.90;91.90
44121;DHT22;29783;52.504;13.478;2023-02-04T05:15:11;0.80;92.20
44121;DHT22;29783;52.504;13.478;2023-02-04T05:17:37;0.90;92.40
44121;DHT22;29783;52.504;13.478;2023-02-04T05:20:03;0.80;92.60
44121;DHT22;29783;52.504;13.478;2023-02-04T05:22:29;0.80;92.40
44121;DHT22;29783;52.504;13.478;2023-02-04T05:24:55;0.80;92.90
44121;DHT22;29783;52.504;13.478;2023-02-04T05:27:20;0.90;92.70
44121;DHT22;29783;52.504;13.478;2023-02-04T05:29:46;0.90;92.60
44121;DHT22;29783;52.504;13.478;2023-02-04T05:32:12;0.80;92.60
44121;DHT22;29783;52.504;13.478;2023-02-04T05:34:38;0.80;92.80
44121;DHT22;29783;52.504;13.478;2023-02-04T05:37:03;0.80;92.90
44121;DHT22;29783;52.504;13.478;2023-02-04T05:39:29;0.80;93.00
44121;DHT22;29783;52.504;13.478;2023-02-04T05:41:55;0.80;93.00
44121;DHT22;29783;52.504;13.478;2023-02-04T05:44:21;0.70;93.10
44121;DHT22;29783;52.504;13.478;2023-02-04T05:46:47;0.70;93.30
44121;DHT22;29783;52.504;13.478;2023-02-04T05:49:12;0.70;93.40
44121;DHT22;29783;52.504;13.478;2023-02-04T05:51:38;0.70;93.30
44121;DHT22;29783;52.504;13.478;2023-02-04T05:54:05;0.50;93.40
44121;DHT22;29783;52.504;13.478;2023-02-04T05:56:31;0.60;93.60
44121;DHT22;29783;52.504;13.478;2023-02-04T05:58:56;0.60;93.60
44121;DHT22;29783;52.504;13.478;2023-02-04T06:01:22;0.60;93.70
44121;DHT22;29783;52.504;13.478;2023-02-04T06:03:48;0.50;93.60
44121;DHT22;29783;52.504;13.478;2023-02-04T06:06:14;0.60;93.80
44121;DHT22;29783;52.504;13.478;2023-02-04T06:08:40;0.50;93.70
44121;DHT22;29783;52.504;13.478;2023-02-04T06:11:06;0.50;93.70
44121;DHT22;29783;52.504;13.478;2023-02-04T06:13:31;0.50;93.80
44121;DHT22;29783;52.504;13.478;2023-02-04T06:15:57;0.50;93.70
44121;DHT22;29783;52.504;13.478;2023-02-04T06:18:23;0.50;93.80
44121;DHT22;29783;52.504;13.478;2023-02-04T06:20:48;0.50;93.90
44121;DHT22;29783;52.504;13.478;2023-02-04T06:23:14;0.50;94.10
44121;DHT22;29783;52.504;13.478;2023-02-04T06:25:40;0.50;94.00
44121;DHT22;29783;52.504;13.478;2023-02-04T06:28:06;0.60;94.00
44121;DHT22;29783;52.504;13.478;2023-02-04T06:30:31;0.50;94.00
44121;DHT22;29783;52.504;13.478;2023-02-04T06:32:57;0.50;93.90
44121;DHT22;29783;52.504;13.478;2023-02-04T06:35:23;0.50;93.90
44121;DHT22;29783;52.504;13.478;2023-02-04T06:37:49;0.40;93.90
44121;DHT22;29783;52.504;13.478;2023-02-04T06:40:15;0.30;94.00
44121;DHT22;29783;52.504;13.478;2023-02-04T06:42:41;0.40;94.30
44121;DHT22;29783;52.504;13.478;2023-02-04T06:45:07;0.40;94.30
44121;DHT22;29783;52.504;13.478;2023-02-04T06:47:33;0.40;94.30
44121;DHT22;29783;52.504;13.478;2023-02-04T06:49:58;0.40;94.30
44121;DHT22;29783;52.504;13.478;2023-02-04T06:52:24;0.30;94.40
44121;DHT22;29783;52.504;13.478;2023-02-04T06:54:50;0.40;94.50
44121;DHT22;29783;52.504;13.478;2023-02-04T06:57:16;0.30;94.40
44121;DHT22;29783;52.504;13.478;2023-02-04T06:59:41;0.30;94.40
44121;DHT22;29783;52.504;13.478;2023-02-04T07:02:11;0.30;94.60
44121;DHT22;29783;52.504;13.478;2023-02-04T07:04:37;0.30;94.70
44121;DHT22;29783;52.504;13.478;2023-02-04T07:07:03;0.30;94.60
44121;DHT22;29783;52.504;13.478;2023-02-04T07:09:29;0.30;94.60
44121;DHT22;29783;52.504;13.478;2023-02-04T07:11:55;0.30;94.80
44121;DHT22;29783;52.504;13.478;2023-02-04T07:14:21;0.30;94.80
44121;DHT22;29783;52.504;13.478;2023-02-04T07:16:46;0.30;94.90
44121;DHT22;29783;52.504;13.478;2023-02-04T07:19:12;0.30;94.90
44121;DHT22;29783;52.504;13.478;2023-02-04T07:21:37;0.30;94.90
44121;DHT22;29783;52.504;13.478;2023-02-04T07:24:03;0.30;95.00
44121;DHT22;29783;52.504;13.478;2023-02-04T07:26:29;0.40;95.00
44121;DHT22;29783;52.504;13.478;2023-02-04T07:28:55;0.50;95.00
44121;DHT22;29783;52.504;13.478;2023-02-04T07:31:21;0.40;94.80
44121;DHT22;29783;52.504;13.478;2023-02-04T07:33:46;0.40;94.70
44121;DHT22;29783;52.504;13.478;2023-02-04T07:36:12;0.50;94.60
44121;DHT22;29783;52.504;13.478;2023-02-04T07:38:38;0.50;94.60
44121;DHT22;29783;52.504;13.478;2023-02-04T07:41:03;0.50;94.60
44121;DHT22;29783;52.504;13.478;2023-02-04T07:43:29;0.50;94.60
44121;DHT22;29783;52.504;13.478;2023-02-04T07:45:55;0.50;94.50
44121;DHT22;29783;52.504;13.478;2023-02-04T07:48:21;0.60;94.40
44121;DHT22;29783;52.504;13.478;2023-02-04T07:50:46;0.60;94.20
44121;DHT22;29783;52.504;13.478;2023-02-04T07:53:12;0.60;94.10
44121;DHT22;29783;52.504;13.478;2023-02-04T07:55:38;0.70;94.10
44121;DHT22;29783;52.504;13.478;2023-02-04T07:58:04;0.70;94.20
44121;DHT22;29783;52.504;13.478;2023-02-04T08:00:30;0.80;93.90
44121;DHT22;29783;52.504;13.478;2023-02-04T08:02:55;0.80;93.80
44121;DHT22;29783;52.504;13.478;2023-02-04T08:05:21;0.80;93.70
44121;DHT22;29783;52.504;13.478;2023-02-04T08:07:47;0.80;93.80
44121;DHT22;29783;52.504;13.478;2023-02-04T08:10:13;0.90;93.60
44121;DHT22;29783;52.504;13.478;2023-02-04T08:12:39;0.90;93.30
44121;DHT22;29783;52.504;13.478;2023-02-04T08:15:05;1.00;93.00
44121;DHT22;29783;52.504;13.478;2023-02-04T08:17:33;1.10;92.70
44121;DHT22;29783;52.504;13.478;2023-02-04T08:19:58;1.10;92.60
44121;DHT22;29783;52.504;13.478;2023-02-04T08:22:24;1.20;92.40
44121;DHT22;29783;52.504;13.478;2023-02-04T08:24:50;1.20;92.20
44121;DHT22;29783;52.504;13.478;2023-02-04T08:27:16;1.20;92.00
44121;DHT22;29783;52.504;13.478;2023-02-04T08:29:42;1.30;92.00
44121;DHT22;29783;52.504;13.478;2023-02-04T08:32:08;1.30;91.70
44121;DHT22;29783;52.504;13.478;2023-02-04T08:34:35;1.30;91.50
44121;DHT22;29783;52.504;13.478;2023-02-04T08:37:01;1.40;91.20
44121;DHT22;29783;52.504;13.478;2023-02-04T08:39:26;1.40;91.20
44121;DHT22;29783;52.504;13.478;2023-02-04T08:41:52;1.40;91.00
44121;DHT22;29783;52.504;13.478;2023-02-04T08:44:18;1.50;90.70
44121;DHT22;29783;52.504;13.478;2023-02-04T08:46:44;1.60;90.20
44121;DHT22;29783;52.504;13.478;2023-02-04T08:49:09;1.60;90.00
44121;DHT22;29783;52.504;13.478;2023-02-04T08:51:35;1.70;90.00
44121;DHT22;29783;52.504;13.478;2023-02-04T08:54:01;1.70;90.00
44121;DHT22;29783;52.504;13.478;2023-02-04T08:56:27;1.80;89.70
44121;DHT22;29783;52.504;13.478;2023-02-04T08:58:52;1.80;89.70
44121;DHT22;29783;52.504;13.478;2023-02-04T09:01:19;1.80;89.20
44121;DHT22;29783;52.504;13.478;2023-02-04T09:03:46;1.90;88.70
44121;DHT22;29783;52.504;13.478;2023-02-04T09:06:12;1.90;88.60
44121;DHT22;29783;52.504;13.478;2023-02-04T09:08:38;1.90;88.40
44121;DHT22;29783;52.504;13.478;2023-02-04T09:11:03;2.00;88.10
44121;DHT22;29783;52.504;13.478;2023-02-04T09:13:30;2.10;88.10
44121;DHT22;29783;52.504;13.478;2023-02-04T09:15:57;2.10;87.70
44121;DHT22;29783;52.504;13.478;2023-02-04T09:18:23;2.20;87.50
44121;DHT22;29783;52.504;13.478;2023-02-04T09:20:51;2.30;86.80
44121;DHT22;29783;52.504;13.478;2023-02-04T09:23:17;2.30;86.90
44121;DHT22;29783;52.504;13.478;2023-02-04T09:25:44;2.30;86.50
44121;DHT22;29783;52.504;13.478;2023-02-04T09:28:11;2.40;86.40
44121;DHT22;29783;52.504;13.478;2023-02-04T09:30:41;2.40;85.90
44121;DHT22;29783;52.504;13.478;2023-02-04T09:33:08;2.50;85.80
44121;DHT22;29783;52.504;13.478;2023-02-04T09:35:34;2.50;85.00
44121;DHT22;29783;52.504;13.478;2023-02-04T09:38:01;2.70;84.90
44121;DHT22;29783;52.504;13.478;2023-02-04T09:40:28;2.80;84.60
44121;DHT22;29783;52.504;13.478;2023-02-04T09:42:56;2.80;84.30
44121;DHT22;29783;52.504;13.478;2023-02-04T09:45:28;2.90;84.40
44121;DHT22;29783;52.504;13.478;2023-02-04T09:47:56;3.00;83.60
44121;DHT22;29783;52.504;13.478;2023-02-04T09:50:25;3.10;83.40
44121;DHT22;29783;52.504;13.478;2023-02-04T09:52:54;3.10;82.80
44121;DHT22;29783;52.504;13.478;2023-02-04T09:55:26;3.10;82.70
44121;DHT22;29783;52.504;13.478;2023-02-04T09:57:55;3.00;82.60
44121;DHT22;29783;52.504;13.478;2023-02-04T10:00:24;3.00;82.50
44121;DHT22;29783;52.504;13.478;2023-02-04T10:02:50;3.10;82.20
44121;DHT22;29783;52.504;13.478;2023-02-04T10:05:29;3.10;82.00
44121;DHT22;29783;52.504;13.478;2023-02-04T10:07:55;3.20;82.00
44121;DHT22;29783;52.504;13.478;2023-02-04T10:10:24;3.30;80.60
44121;DHT22;29783;52.504;13.478;2023-02-04T10:13:15;3.30;80.40
44121;DHT22;29783;52.504;13.478;2023-02-04T10:15:38;3.40;80.10
44121;DHT22;29783;52.504;13.478;2023-02-04T10:18:10;3.40;79.30
44121;DHT22;29783;52.504;13.478;2023-02-04T10:20:37;3.50;78.50
44121;DHT22;29783;52.504;13.478;2023-02-04T10:23:09;3.50;77.60
44121;DHT22;29783;52.504;13.478;2023-02-04T10:25:36;3.60;77.60
44121;DHT22;29783;52.504;13.478;2023-02-04T10:28:05;3.60;77.50
44121;DHT22;29783;52.504;13.478;2023-02-04T10:30:38;3.70;77.20
44121;DHT22;29783;52.504;13.478;2023-02-04T10:33:21;4.00;76.90
44121;DHT22;29783;52.504;13.478;2023-02-04T10:35:51;4.40;76.20
44121;DHT22;29783;52.504;13.478;2023-02-04T10:38:17;4.50;75.30
44121;DHT22;29783;52.504;13.478;2023-02-04T10:40:43;4.30;74.20
44121;DHT22;29783;52.504;13.478;2023-02-04T10:43:15;4.10;74.40
44121;DHT22;29783;52.504;13.478;2023-02-04T10:45:45;4.00;74.70
44121;DHT22;29783;52.504;13.478;2023-02-04T10:48:16;4.00;73.70
44121;DHT22;29783;52.504;13.478;2023-02-04T10:50:42;4.00;73.60
44121;DHT22;29783;52.504;13.478;2023-02-04T10:53:09;4.10;72.90
44121;DHT22;29783;52.504;13.478;2023-02-04T10:55:54;4.20;72.20
44121;DHT22;29783;52.504;13.478;2023-02-04T10:58:27;4.20;72.00
44121;DHT22;29783;52.504;13.478;2023-02-04T11:00:53;4.40;71.90
44121;DHT22;29783;52.504;13.478;2023-02-04T11:03:23;4.40;71.60
44121;DHT22;29783;52.504;13.478;2023-02-04T11:05:49;4.40;70.40
44121;DHT22;29783;52.504;13.478;2023-02-04T11:08:28;4.40;69.60
44121;DHT22;29783;52.504;13.478;2023-02-04T11:11:00;4.40;68.70
44121;DHT22;29783;52.504;13.478;2023-02-04T11:13:41;4.40;69.10
44121;DHT22;29783;52.504;13.478;2023-02-04T11:16:11;4.50;69.10
44121;DHT22;29783;52.504;13.478;2023-02-04T11:24:02;4.40;67.50
44121;DHT22;29783;52.504;13.478;2023-02-04T11:26:37;4.30;67.60
44121;DHT22;29783;52.504;13.478;2023-02-04T11:41:59;4.70;67.10
44121;DHT22;29783;52.504;13.478;2023-02-04T11:44:25;4.80;65.80
44121;DHT22;29783;52.504;13.478;2023-02-04T11:46:53;4.80;65.90
44121;DHT22;29783;52.504;13.478;2023-02-04T11:49:20;4.60;65.00
44121;DHT22;29783;52.504;13.478;2023-02-04T11:51:48;4.50;66.10
44121;DHT22;29783;52.504;13.478;2023-02-04T11:54:15;4.50;66.40
44121;DHT22;29783;52.504;13.478;2023-02-04T11:56:45;4.50;67.50
44121;DHT22;29783;52.504;13.478;2023-02-04T11:59:14;4.60;66.80
44121;DHT22;29783;52.504;13.478;2023-02-04T12:01:42;4.50;66.40
44121;DHT22;29783;52.504;13.478;2023-02-04T12:04:22;4.40;66.30
44121;DHT22;29783;52.504;13.478;2023-02-04T12:07:10;4.50;65.90
44121;DHT22;29783;52.504;13.478;2023-02-04T12:09:46;4.40;66.70
44121;DHT22;29783;52.504;13.478;2023-02-04T12:12:23;4.40;66.90
44121;DHT22;29783;52.504;13.478;2023-02-04T12:14:57;4.50;67.50
44121;DHT22;29783;52.504;13.478;2023-02-04T12:17:22;4.60;67.80
44121;DHT22;29783;52.504;13.478;2023-02-04T12:19:48;4.80;67.60
44121;DHT22;29783;52.504;13.478;2023-02-04T12:22:14;4.80;66.50
44121;DHT22;29783;52.504;13.478;2023-02-04T12:24:40;4.60;66.10
44121;DHT22;29783;52.504;13.478;2023-02-04T12:27:06;4.50;66.40
44121;DHT22;29783;52.504;13.478;2023-02-04T12:29:32;4.40;67.40
44121;DHT22;29783;52.504;13.478;2023-02-04T12:31:57;4.40;68.40
44121;DHT22;29783;52.504;13.478;2023-02-04T12:34:23;4.40;69.20
44121;DHT22;29783;52.504;13.478;2023-02-04T12:36:49;4.30;70.30
44121;DHT22;29783;52.504;13.478;2023-02-04T12:39:14;4.30;69.60
44121;DHT22;29783;52.504;13.478;2023-02-04T12:41:40;4.20;68.30
44121;DHT22;29783;52.504;13.478;2023-02-04T12:44:06;4.10;67.90
44121;DHT22;29783;52.504;13.478;2023-02-04T12:46:32;4.10;67.00
44121;DHT22;29783;52.504;13.478;2023-02-04T12:48:58;4.10;67.60
44121;DHT22;29783;52.504;13.478;2023-02-04T12:51:23;4.10;66.90
44121;DHT22;29783;52.504;13.478;2023-02-04T12:53:49;4.10;66.20
44121;DHT22;29783;52.504;13.478;2023-02-04T12:56:15;4.20;66.20
44121;DHT22;29783;52.504;13.478;2023-02-04T12:58:41;4.30;64.40
44121;DHT22;29783;52.504;13.478;2023-02-04T13:01:06;4.20;62.80
44121;DHT22;29783;52.504;13.478;2023-02-04T13:03:32;4.30;62.30
44121;DHT22;29783;52.504;13.478;2023-02-04T13:05:58;4.30;61.90
44121;DHT22;29783;52.504;13.478;2023-02-04T13:08:24;4.40;61.60
44121;DHT22;29783;52.504;13.478;2023-02-04T13:10:50;4.50;61.10
44121;DHT22;29783;52.504;13.478;2023-02-04T13:13:20;4.40;61.70
44121;DHT22;29783;52.504;13.478;2023-02-04T13:15:47;4.40;62.10
44121;DHT22;29783;52.504;13.478;2023-02-04T13:18:13;4.40;62.30
44121;DHT22;29783;52.504;13.478;2023-02-04T13:20:39;4.40;62.60
44121;DHT22;29783;52.504;13.478;2023-02-04T13:23:05;4.40;63.00
44121;DHT22;29783;52.504;13.478;2023-02-04T13:25:31;4.90;61.80
44121;DHT22;29783;52.504;13.478;2023-02-04T13:27:57;4.70;60.70
44121;DHT22;29783;52.504;13.478;2023-02-04T13:30:23;4.30;62.40
44121;DHT22;29783;52.504;13.478;2023-02-04T13:32:48;4.20;63.20
44121;DHT22;29783;52.504;13.478;2023-02-04T13:35:14;4.20;64.00
44121;DHT22;29783;52.504;13.478;2023-02-04T13:37:40;5.10;61.70
44121;DHT22;29783;52.504;13.478;2023-02-04T13:40:09;5.00;60.60
44121;DHT22;29783;52.504;13.478;2023-02-04T13:42:43;4.70;61.90
44121;DHT22;29783;52.504;13.478;2023-02-04T13:45:09;4.50;63.30
44121;DHT22;29783;52.504;13.478;2023-02-04T13:47:37;4.50;63.60
44121;DHT22;29783;52.504;13.478;2023-02-04T13:50:04;5.10;60.70
44121;DHT22;29783;52.504;13.478;2023-02-04T13:52:30;4.70;61.40
44121;DHT22;29783;52.504;13.478;2023-02-04T13:54:57;5.50;61.10
44121;DHT22;29783;52.504;13.478;2023-02-04T13:57:23;6.80;55.60
44121;DHT22;29783;52.504;13.478;2023-02-04T13:59:48;7.60;53.40
44121;DHT22;29783;52.504;13.478;2023-02-04T14:02:14;8.70;49.50
44121;DHT22;29783;52.504;13.478;2023-02-04T14:04:40;8.70;48.60
44121;DHT22;29783;52.504;13.478;2023-02-04T14:07:08;7.70;50.50
44121;DHT22;29783;52.504;13.478;2023-02-04T14:09:34;6.80;53.40
44121;DHT22;29783;52.504;13.478;2023-02-04T14:12:00;6.10;55.00
44121;DHT22;29783;52.504;13.478;2023-02-04T14:14:26;6.10;56.10
44121;DHT22;29783;52.504;13.478;2023-02-04T14:16:52;6.40;51.50
44121;DHT22;29783;52.504;13.478;2023-02-04T14:19:17;7.30;50.50
44121;DHT22;29783;52.504;13.478;2023-02-04T14:21:43;6.70;50.80
44121;DHT22;29783;52.504;13.478;2023-02-04T14:24:10;5.90;52.60
44121;DHT22;29783;52.504;13.478;2023-02-04T14:26:36;5.10;55.20
44121;DHT22;29783;52.504;13.478;2023-02-04T14:29:02;4.80;56.80
44121;DHT22;29783;52.504;13.478;2023-02-04T14:31:29;4.40;58.50
44121;DHT22;29783;52.504;13.478;2023-02-04T14:33:54;4.10;59.50
44121;DHT22;29783;52.504;13.478;2023-02-04T14:36:20;4.00;60.20
44121;DHT22;29783;52.504;13.478;2023-02-04T14:38:46;3.80;60.60
44121;DHT22;29783;52.504;13.478;2023-02-04T14:41:12;3.70;61.30
44121;DHT22;29783;52.504;13.478;2023-02-04T14:43:40;3.50;61.30
44121;DHT22;29783;52.504;13.478;2023-02-04T14:46:06;3.50;62.10
44121;DHT22;29783;52.504;13.478;2023-02-04T14:48:32;3.40;62.50
44121;DHT22;29783;52.504;13.478;2023-02-04T14:50:58;3.30;62.60
44121;DHT22;29783;52.504;13.478;2023-02-04T14:53:24;3.30;61.60
44121;DHT22;29783;52.504;13.478;2023-02-04T14:55:50;3.40;62.00
44121;DHT22;29783;52.504;13.478;2023-02-04T14:58:16;3.40;62.70
44121;DHT22;29783;52.504;13.478;2023-02-04T15:00:41;3.30;62.70
44121;DHT22;29783;52.504;13.478;2023-02-04T15:03:07;3.30;62.80
44121;DHT22;29783;52.504;13.478;2023-02-04T15:05:33;3.30;62.70
44121;DHT22;29783;52.504;13.478;2023-02-04T15:07:59;3.20;62.90
44121;DHT22;29783;52.504;13.478;2023-02-04T15:10:24;3.20;63.30
44121;DHT22;29783;52.504;13.478;2023-02-04T15:12:50;3.10;63.40
44121;DHT22;29783;52.504;13.478;2023-02-04T15:15:16;3.20;63.50
44121;DHT22;29783;52.504;13.478;2023-02-04T15:17:42;3.10;63.70
44121;DHT22;29783;52.504;13.478;2023-02-04T15:20:08;3.20;63.10
44121;DHT22;29783;52.504;13.478;2023-02-04T15:22:34;3.30;62.50
44121;DHT22;29783;52.504;13.478;2023-02-04T15:25:00;3.30;61.90
44121;DHT22;29783;52.504;13.478;2023-02-04T15:27:25;3.20;61.30
44121;DHT22;29783;52.504;13.478;2023-02-04T15:29:52;3.20;60.40
44121;DHT22;29783;52.504;13.478;2023-02-04T15:32:18;3.10;60.40
44121;DHT22;29783;52.504;13.478;2023-02-04T15:34:43;3.10;60.50
44121;DHT22;29783;52.504;13.478;2023-02-04T15:37:09;3.00;60.90
44121;DHT22;29783;52.504;13.478;2023-02-04T15:39:36;2.90;61.00
44121;DHT22;29783;52.504;13.478;2023-02-04T15:42:02;2.80;61.50
44121;DHT22;29783;52.504;13.478;2023-02-04T15:44:28;2.70;62.00
44121;DHT22;29783;52.504;13.478;2023-02-04T15:46:54;2.60;62.40